sensor_id;sensor_type;location;lat;lon;timestamp;P1;durP1;ratioP1;P2;durP2;ratioP2
76393;SDS011;65216;51.090;-115.352;2024-02-21T00:01:25;24.00;;;2.10;;
76393;SDS011;65216;51.090;-115.352;2024-02-21T00:03:52;21.10;;;1.60;;
76393;SDS011;65216;51.090;-115.352;2024-02-21T00:06:19;19.50;;;1.70;;
76393;SDS011;65216;51.090;-115.352;2024-02-21T00:08:46;20.40;;;1.60;;
76393;SDS011;65216;51.090;-115.352;2024-02-21T00:11:13;17.40;;;1.70;;
76393;SDS011;65216;51.090;-115.352;2024-02-21T00:13:42;14.60;;;1.70;;
76393;SDS011;65216;51.090;-115.352;2024-02-21T00:16:08;25.00;;;1.90;;
76393;SDS011;65216;51.090;-115.352;2024-02-21T00:18:37;18.60;;;1.70;;
76393;SDS011;65216;51.090;-115.352;2024-02-21T00:21:04;18.70;;;1.80;;
76393;SDS011;65216;51.090;-115.352;2024-02-21T00:23:31;19.90;;;2.00;;
76393;SDS011;65216;51.090;-115.352;2024-02-21T00:25:58;24.40;;;1.90;;
76393;SDS011;65216;51.090;-115.352;2024-02-21T00:28:25;11.80;;;1.90;;
76393;SDS011;65216;51.090;-115.352;2024-02-21T00:30:52;22.60;;;2.60;;
76393;SDS011;65216;51.090;-115.352;2024-02-21T00:33:20;18.10;;;1.80;;
76393;SDS011;65216;51.090;-115.352;2024-02-21T00:35:52;24.70;;;2.10;;
76393;SDS011;65216;51.090;-115.352;2024-02-21T00:38:19;17.10;;;2.10;;
76393;SDS011;65216;51.090;-115.352;2024-02-21T00:40:48;17.00;;;1.90;;
76393;SDS011;65216;51.090;-115.352;2024-02-21T00:43:15;15.80;;;1.80;;
76393;SDS011;65216;51.090;-115.352;2024-02-21T00:45:42;24.30;;;2.30;;
76393;SDS011;65216;51.090;-115.352;2024-02-21T00:48:09;19.40;;;2.00;;
76393;SDS011;65216;51.090;-115.352;2024-02-21T00:50:36;16.80;;;2.70;;
76393;SDS011;65216;51.090;-115.352;2024-02-21T00:53:03;17.80;;;1.70;;
76393;SDS011;65216;51.090;-115.352;2024-02-21T00:55:30;16.50;;;1.60;;
76393;SDS011;65216;51.090;-115.352;2024-02-21T00:57:57;18.10;;;2.00;;
76393;SDS011;65216;51.090;-115.352;2024-02-21T01:00:26;23.40;;;2.00;;
76393;SDS011;65216;51.090;-115.352;2024-02-21T01:02:53;19.40;;;2.10;;
76393;SDS011;65216;51.090;-115.352;2024-02-21T01:05:20;19.10;;;2.20;;
76393;SDS011;65216;51.090;-115.352;2024-02-21T01:07:49;17.90;;;2.20;;
76393;SDS011;65216;51.090;-115.352;2024-02-21T01:10:15;16.90;;;1.60;;
76393;SDS011;65216;51.090;-115.352;2024-02-21T01:12:43;10.80;;;1.80;;
76393;SDS011;65216;51.090;-115.352;2024-02-21T01:15:09;27.10;;;2.30;;
76393;SDS011;65216;51.090;-115.352;2024-02-21T01:17:37;19.50;;;2.00;;
76393;SDS011;65216;51.090;-115.352;2024-02-21T01:20:06;20.80;;;2.10;;
76393;SDS011;65216;51.090;-115.352;2024-02-21T01:22:33;18.30;;;1.80;;
76393;SDS011;65216;51.090;-115.352;2024-02-21T01:25:00;20.90;;;2.50;;
76393;SDS011;65216;51.090;-115.352;2024-02-21T01:27:27;21.20;;;2.30;;
76393;SDS011;65216;51.090;-115.352;2024-02-21T01:29:57;26.40;;;2.10;;
76393;SDS011;65216;51.090;-115.352;2024-02-21T01:32:24;18.50;;;2.40;;
76393;SDS011;65216;51.090;-115.352;2024-02-21T01:34:51;26.70;;;2.30;;
76393;SDS011;65216;51.090;-115.352;2024-02-21T01:37:23;25.40;;;3.00;;
76393;SDS011;65216;51.090;-115.352;2024-02-21T01:39:49;24.70;;;2.40;;
76393;SDS011;65216;51.090;-115.352;2024-02-21T01:42:16;30.80;;;3.10;;
76393;SDS011;65216;51.090;-115.352;2024-02-21T01:44:43;28.50;;;2.40;;
76393;SDS011;65216;51.090;-115.352;2024-02-21T01:47:11;20.70;;;2.60;;
76393;SDS011;65216;51.090;-115.352;2024-02-21T01:49:41;27.80;;;2.40;;
76393;SDS011;65216;51.090;-115.352;2024-02-21T01:52:11;22.90;;;3.20;;
76393;SDS011;65216;51.090;-115.352;2024-02-21T01:54:42;36.60;;;3.00;;
76393;SDS011;65216;51.090;-115.352;2024-02-21T01:57:12;25.60;;;2.70;;
76393;SDS011;65216;51.090;-115.352;2024-02-21T01:59:40;37.10;;;3.60;;
76393;SDS011;65216;51.090;-115.352;2024-02-21T02:02:08;24.70;;;2.60;;
76393;SDS011;65216;51.090;-115.352;2024-02-21T02:04:37;28.30;;;3.30;;
76393;SDS011;65216;51.090;-115.352;2024-02-21T02:07:07;26.40;;;3.10;;
76393;SDS011;65216;51.090;-115.352;2024-02-21T02:09:36;28.90;;;3.00;;
76393;SDS011;65216;51.090;-115.352;2024-02-21T02:12:05;21.40;;;2.60;;
76393;SDS011;65216;51.090;-115.352;2024-02-21T02:14:32;28.90;;;3.00;;
76393;SDS011;65216;51.090;-115.352;2024-02-21T02:16:59;27.60;;;3.60;;
76393;SDS011;65216;51.090;-115.352;2024-02-21T02:19:26;28.20;;;2.60;;
76393;SDS011;65216;51.090;-115.352;2024-02-21T02:22:02;33.20;;;3.10;;
76393;SDS011;65216;51.090;-115.352;2024-02-21T02:24:39;27.70;;;2.40;;
76393;SDS011;65216;51.090;-115.352;2024-02-21T02:27:08;33.90;;;2.90;;
76393;SDS011;65216;51.090;-115.352;2024-02-21T02:29:35;25.40;;;2.50;;
76393;SDS011;65216;51.090;-115.352;2024-02-21T02:32:02;28.60;;;2.50;;
76393;SDS011;65216;51.090;-115.352;2024-02-21T02:34:29;20.90;;;2.20;;
76393;SDS011;65216;51.090;-115.352;2024-02-21T02:36:56;25.00;;;2.30;;
76393;SDS011;65216;51.090;-115.352;2024-02-21T02:39:23;22.10;;;2.70;;
76393;SDS011;65216;51.090;-115.352;2024-02-21T02:41:50;31.30;;;3.00;;
76393;SDS011;65216;51.090;-115.352;2024-02-21T02:44:17;29.00;;;3.20;;
76393;SDS011;65216;51.090;-115.352;2024-02-21T02:46:47;23.60;;;3.50;;
76393;SDS011;65216;51.090;-115.352;2024-02-21T02:49:13;17.00;;;2.20;;
76393;SDS011;65216;51.090;-115.352;2024-02-21T02:51:45;30.40;;;2.80;;
76393;SDS011;65216;51.090;-115.352;2024-02-21T02:54:14;24.90;;;3.30;;
76393;SDS011;65216;51.090;-115.352;2024-02-21T02:56:41;21.60;;;2.80;;
76393;SDS011;65216;51.090;-115.352;2024-02-21T02:59:09;24.90;;;2.10;;
76393;SDS011;65216;51.090;-115.352;2024-02-21T03:01:36;26.50;;;2.90;;
76393;SDS011;65216;51.090;-115.352;2024-02-21T03:04:06;24.60;;;2.40;;
76393;SDS011;65216;51.090;-115.352;2024-02-21T03:06:33;28.10;;;3.20;;
76393;SDS011;65216;51.090;-115.352;2024-02-21T03:09:00;27.60;;;2.80;;
76393;SDS011;65216;51.090;-115.352;2024-02-21T03:11:27;26.30;;;2.40;;
76393;SDS011;65216;51.090;-115.352;2024-02-21T03:13:55;32.60;;;2.90;;
76393;SDS011;65216;51.090;-115.352;2024-02-21T03:16:25;25.70;;;2.90;;
76393;SDS011;65216;51.090;-115.352;2024-02-21T03:18:52;25.10;;;2.80;;
76393;SDS011;65216;51.090;-115.352;2024-02-21T03:21:19;25.60;;;2.20;;
76393;SDS011;65216;51.090;-115.352;2024-02-21T03:23:46;21.60;;;2.40;;
76393;SDS011;65216;51.090;-115.352;2024-02-21T03:26:15;25.90;;;2.70;;
76393;SDS011;65216;51.090;-115.352;2024-02-21T03:28:45;23.20;;;2.50;;
76393;SDS011;65216;51.090;-115.352;2024-02-21T03:31:12;23.90;;;2.70;;
76393;SDS011;65216;51.090;-115.352;2024-02-21T03:33:42;25.50;;;3.50;;
76393;SDS011;65216;51.090;-115.352;2024-02-21T03:36:16;19.20;;;2.20;;
76393;SDS011;65216;51.090;-115.352;2024-02-21T03:38:42;16.70;;;1.80;;
76393;SDS011;65216;51.090;-115.352;2024-02-21T03:41:10;17.70;;;3.00;;
76393;SDS011;65216;51.090;-115.352;2024-02-21T03:43:39;17.60;;;2.50;;
76393;SDS011;65216;51.090;-115.352;2024-02-21T03:46:06;16.70;;;1.90;;
76393;SDS011;65216;51.090;-115.352;2024-02-21T03:48:37;16.50;;;1.60;;
76393;SDS011;65216;51.090;-115.352;2024-02-21T03:51:04;13.50;;;1.40;;
76393;SDS011;65216;51.090;-115.352;2024-02-21T03:53:31;12.40;;;1.60;;
76393;SDS011;65216;51.090;-115.352;2024-02-21T03:56:01;13.50;;;1.50;;
76393;SDS011;65216;51.090;-115.352;2024-02-21T03:58:30;12.80;;;1.60;;
76393;SDS011;65216;51.090;-115.352;2024-02-21T04:00:59;13.50;;;1.50;;
76393;SDS011;65216;51.090;-115.352;2024-02-21T04:03:30;13.30;;;1.50;;
76393;SDS011;65216;51.090;-115.352;2024-02-21T04:05:57;14.10;;;1.60;;
76393;SDS011;65216;51.090;-115.352;2024-02-21T04:08:24;11.80;;;1.50;;
76393;SDS011;65216;51.090;-115.352;2024-02-21T04:10:51;11.50;;;1.50;;
76393;SDS011;65216;51.090;-115.352;2024-02-21T04:13:18;16.00;;;1.90;;
76393;SDS011;65216;51.090;-115.352;2024-02-21T04:15:45;13.60;;;1.20;;
76393;SDS011;65216;51.090;-115.352;2024-02-21T04:18:12;15.10;;;1.40;;
76393;SDS011;65216;51.090;-115.352;2024-02-21T04:20:38;11.10;;;1.10;;
76393;SDS011;65216;51.090;-115.352;2024-02-21T04:23:05;8.00;;;1.20;;
76393;SDS011;65216;51.090;-115.352;2024-02-21T04:25:32;11.60;;;1.20;;
76393;SDS011;65216;51.090;-115.352;2024-02-21T04:27:59;8.70;;;1.10;;
76393;SDS011;65216;51.090;-115.352;2024-02-21T04:30:26;12.50;;;2.10;;
76393;SDS011;65216;51.090;-115.352;2024-02-21T04:32:53;10.70;;;1.20;;
76393;SDS011;65216;51.090;-115.352;2024-02-21T04:35:20;12.50;;;1.00;;
76393;SDS011;65216;51.090;-115.352;2024-02-21T04:37:50;8.10;;;1.60;;
76393;SDS011;65216;51.090;-115.352;2024-02-21T04:40:17;6.30;;;0.90;;
76393;SDS011;65216;51.090;-115.352;2024-02-21T04:42:44;15.00;;;1.40;;
76393;SDS011;65216;51.090;-115.352;2024-02-21T04:45:11;6.60;;;0.90;;
76393;SDS011;65216;51.090;-115.352;2024-02-21T04:47:38;9.50;;;1.00;;
76393;SDS011;65216;51.090;-115.352;2024-02-21T04:50:08;11.50;;;1.30;;
76393;SDS011;65216;51.090;-115.352;2024-02-21T04:52:34;13.00;;;1.90;;
76393;SDS011;65216;51.090;-115.352;2024-02-21T04:55:01;7.60;;;0.80;;
76393;SDS011;65216;51.090;-115.352;2024-02-21T04:57:29;8.30;;;1.10;;
76393;SDS011;65216;51.090;-115.352;2024-02-21T04:59:56;8.40;;;0.90;;
76393;SDS011;65216;51.090;-115.352;2024-02-21T05:02:22;5.90;;;0.70;;
76393;SDS011;65216;51.090;-115.352;2024-02-21T05:04:50;7.60;;;0.90;;
76393;SDS011;65216;51.090;-115.352;2024-02-21T05:07:20;2.40;;;0.40;;
76393;SDS011;65216;51.090;-115.352;2024-02-21T05:09:46;6.10;;;0.70;;
76393;SDS011;65216;51.090;-115.352;2024-02-21T05:12:13;7.30;;;0.80;;
76393;SDS011;65216;51.090;-115.352;2024-02-21T05:14:40;3.60;;;0.60;;
76393;SDS011;65216;51.090;-115.352;2024-02-21T05:17:07;4.50;;;0.80;;
76393;SDS011;65216;51.090;-115.352;2024-02-21T05:19:33;5.10;;;0.70;;
76393;SDS011;65216;51.090;-115.352;2024-02-21T05:22:00;2.70;;;0.60;;
76393;SDS011;65216;51.090;-115.352;2024-02-21T05:24:27;3.50;;;0.60;;
76393;SDS011;65216;51.090;-115.352;2024-02-21T05:26:55;3.30;;;0.40;;
76393;SDS011;65216;51.090;-115.352;2024-02-21T05:29:22;1.40;;;0.30;;
76393;SDS011;65216;51.090;-115.352;2024-02-21T05:34:19;5.90;;;0.40;;
76393;SDS011;65216;51.090;-115.352;2024-02-21T05:36:47;3.80;;;0.30;;
76393;SDS011;65216;51.090;-115.352;2024-02-21T05:39:15;3.60;;;0.40;;
76393;SDS011;65216;51.090;-115.352;2024-02-21T05:41:43;0.50;;;0.20;;
76393;SDS011;65216;51.090;-115.352;2024-02-21T05:44:10;1.20;;;0.40;;
76393;SDS011;65216;51.090;-115.352;2024-02-21T05:46:46;2.00;;;0.30;;
76393;SDS011;65216;51.090;-115.352;2024-02-21T05:49:13;3.30;;;0.20;;
76393;SDS011;65216;51.090;-115.352;2024-02-21T05:51:42;0.90;;;0.20;;
76393;SDS011;65216;51.090;-115.352;2024-02-21T05:54:09;0.70;;;0.20;;
76393;SDS011;65216;51.090;-115.352;2024-02-21T05:56:36;3.00;;;0.30;;
76393;SDS011;65216;51.090;-115.352;2024-02-21T05:59:03;1.20;;;0.20;;
76393;SDS011;65216;51.090;-115.352;2024-02-21T06:01:30;1.20;;;0.10;;
76393;SDS011;65216;51.090;-115.352;2024-02-21T06:03:56;1.10;;;0.30;;
76393;SDS011;65216;51.090;-115.352;2024-02-21T06:06:23;0.30;;;0.10;;
76393;SDS011;65216;51.090;-115.352;2024-02-21T06:08:50;0.70;;;0.30;;
76393;SDS011;65216;51.090;-115.352;2024-02-21T06:11:17;0.40;;;0.10;;
76393;SDS011;65216;51.090;-115.352;2024-02-21T06:13:44;0.20;;;0.10;;
76393;SDS011;65216;51.090;-115.352;2024-02-21T06:16:11;0.10;;;0.10;;
76393;SDS011;65216;51.090;-115.352;2024-02-21T06:18:38;2.20;;;0.10;;
76393;SDS011;65216;51.090;-115.352;2024-02-21T06:21:05;0.40;;;0.20;;
76393;SDS011;65216;51.090;-115.352;2024-02-21T06:23:37;1.20;;;0.10;;
76393;SDS011;65216;51.090;-115.352;2024-02-21T06:26:06;3.30;;;0.20;;
76393;SDS011;65216;51.090;-115.352;2024-02-21T06:28:35;1.10;;;0.20;;
76393;SDS011;65216;51.090;-115.352;2024-02-21T06:31:03;1.30;;;0.20;;
76393;SDS011;65216;51.090;-115.352;2024-02-21T06:33:30;0.80;;;0.40;;
76393;SDS011;65216;51.090;-115.352;2024-02-21T06:35:56;3.10;;;0.50;;
76393;SDS011;65216;51.090;-115.352;2024-02-21T06:38:26;0.70;;;0.20;;
76393;SDS011;65216;51.090;-115.352;2024-02-21T06:40:53;1.50;;;0.30;;
76393;SDS011;65216;51.090;-115.352;2024-02-21T06:43:24;1.70;;;0.30;;
76393;SDS011;65216;51.090;-115.352;2024-02-21T06:45:51;4.70;;;0.40;;
76393;SDS011;65216;51.090;-115.352;2024-02-21T06:48:18;1.60;;;0.30;;
76393;SDS011;65216;51.090;-115.352;2024-02-21T06:50:45;3.50;;;0.50;;
76393;SDS011;65216;51.090;-115.352;2024-02-21T06:53:12;5.20;;;0.60;;
76393;SDS011;65216;51.090;-115.352;2024-02-21T06:55:39;3.30;;;0.50;;
76393;SDS011;65216;51.090;-115.352;2024-02-21T06:58:06;6.70;;;0.70;;
76393;SDS011;65216;51.090;-115.352;2024-02-21T07:00:38;2.10;;;0.50;;
76393;SDS011;65216;51.090;-115.352;2024-02-21T07:03:06;4.40;;;0.70;;
76393;SDS011;65216;51.090;-115.352;2024-02-21T07:05:33;7.90;;;0.60;;
76393;SDS011;65216;51.090;-115.352;2024-02-21T07:08:00;4.30;;;0.60;;
76393;SDS011;65216;51.090;-115.352;2024-02-21T07:10:27;3.00;;;0.60;;
76393;SDS011;65216;51.090;-115.352;2024-02-21T07:12:55;4.00;;;0.50;;
76393;SDS011;65216;51.090;-115.352;2024-02-21T07:15:22;2.40;;;0.50;;
76393;SDS011;65216;51.090;-115.352;2024-02-21T07:17:48;3.70;;;0.90;;
76393;SDS011;65216;51.090;-115.352;2024-02-21T07:20:15;2.50;;;0.80;;
76393;SDS011;65216;51.090;-115.352;2024-02-21T07:22:42;3.70;;;1.00;;
76393;SDS011;65216;51.090;-115.352;2024-02-21T07:25:09;5.20;;;0.80;;
76393;SDS011;65216;51.090;-115.352;2024-02-21T07:27:36;2.50;;;0.40;;
76393;SDS011;65216;51.090;-115.352;2024-02-21T07:30:03;3.20;;;0.50;;
76393;SDS011;65216;51.090;-115.352;2024-02-21T07:32:31;1.90;;;0.40;;
76393;SDS011;65216;51.090;-115.352;2024-02-21T07:34:57;4.90;;;0.60;;
76393;SDS011;65216;51.090;-115.352;2024-02-21T07:37:27;1.90;;;0.30;;
76393;SDS011;65216;51.090;-115.352;2024-02-21T07:39:54;5.10;;;0.60;;
76393;SDS011;65216;51.090;-115.352;2024-02-21T07:42:20;1.90;;;0.50;;
76393;SDS011;65216;51.090;-115.352;2024-02-21T07:44:47;1.10;;;0.40;;
76393;SDS011;65216;51.090;-115.352;2024-02-21T07:47:14;2.40;;;0.40;;
76393;SDS011;65216;51.090;-115.352;2024-02-21T07:49:43;5.50;;;0.80;;
76393;SDS011;65216;51.090;-115.352;2024-02-21T07:52:12;2.40;;;0.50;;
76393;SDS011;65216;51.090;-115.352;2024-02-21T07:54:38;0.90;;;0.30;;
76393;SDS011;65216;51.090;-115.352;2024-02-21T07:57:05;0.70;;;0.30;;
76393;SDS011;65216;51.090;-115.352;2024-02-21T07:59:33;0.90;;;0.20;;
76393;SDS011;65216;51.090;-115.352;2024-02-21T08:02:03;1.00;;;0.20;;
76393;SDS011;65216;51.090;-115.352;2024-02-21T08:04:35;3.00;;;0.30;;
76393;SDS011;65216;51.090;-115.352;2024-02-21T08:07:01;0.90;;;0.20;;
76393;SDS011;65216;51.090;-115.352;2024-02-21T08:09:30;1.10;;;0.20;;
76393;SDS011;65216;51.090;-115.352;2024-02-21T08:12:00;0.20;;;0.10;;
76393;SDS011;65216;51.090;-115.352;2024-02-21T08:14:27;0.10;;;0.10;;
76393;SDS011;65216;51.090;-115.352;2024-02-21T08:16:54;1.00;;;0.20;;
76393;SDS011;65216;51.090;-115.352;2024-02-21T08:19:22;0.80;;;0.20;;
76393;SDS011;65216;51.090;-115.352;2024-02-21T08:21:48;0.10;;;0.00;;
76393;SDS011;65216;51.090;-115.352;2024-02-21T08:24:15;0.50;;;0.20;;
76393;SDS011;65216;51.090;-115.352;2024-02-21T08:26:43;0.30;;;0.10;;
76393;SDS011;65216;51.090;-115.352;2024-02-21T08:29:11;0.40;;;0.10;;
76393;SDS011;65216;51.090;-115.352;2024-02-21T08:31:38;0.20;;;0.20;;
76393;SDS011;65216;51.090;-115.352;2024-02-21T08:34:05;0.50;;;0.10;;
76393;SDS011;65216;51.090;-115.352;2024-02-21T08:36:35;0.80;;;0.20;;
76393;SDS011;65216;51.090;-115.352;2024-02-21T08:39:03;0.00;;;0.00;;
76393;SDS011;65216;51.090;-115.352;2024-02-21T08:41:34;0.60;;;0.10;;
76393;SDS011;65216;51.090;-115.352;2024-02-21T08:44:04;0.10;;;0.00;;
76393;SDS011;65216;51.090;-115.352;2024-02-21T08:46:31;0.30;;;0.10;;
76393;SDS011;65216;51.090;-115.352;2024-02-21T08:48:57;0.10;;;0.10;;
76393;SDS011;65216;51.090;-115.352;2024-02-21T08:51:24;0.10;;;0.10;;
76393;SDS011;65216;51.090;-115.352;2024-02-21T08:53:52;0.30;;;0.10;;
76393;SDS011;65216;51.090;-115.352;2024-02-21T08:56:22;0.50;;;0.10;;
76393;SDS011;65216;51.090;-115.352;2024-02-21T08:58:49;0.20;;;0.10;;
76393;SDS011;65216;51.090;-115.352;2024-02-21T09:01:15;0.40;;;0.30;;
76393;SDS011;65216;51.090;-115.352;2024-02-21T09:03:43;0.00;;;0.00;;
76393;SDS011;65216;51.090;-115.352;2024-02-21T09:06:10;0.10;;;0.10;;
76393;SDS011;65216;51.090;-115.352;2024-02-21T09:08:38;0.00;;;0.00;;
76393;SDS011;65216;51.090;-115.352;2024-02-21T09:11:06;0.00;;;0.00;;
76393;SDS011;65216;51.090;-115.352;2024-02-21T09:13:33;0.70;;;0.20;;
76393;SDS011;65216;51.090;-115.352;2024-02-21T09:16:00;0.00;;;0.00;;
76393;SDS011;65216;51.090;-115.352;2024-02-21T09:18:26;0.50;;;0.10;;
76393;SDS011;65216;51.090;-115.352;2024-02-21T09:20:56;0.10;;;0.00;;
76393;SDS011;65216;51.090;-115.352;2024-02-21T09:23:29;0.10;;;0.10;;
76393;SDS011;65216;51.090;-115.352;2024-02-21T09:25:57;0.20;;;0.20;;
76393;SDS011;65216;51.090;-115.352;2024-02-21T09:28:26;0.00;;;0.00;;
76393;SDS011;65216;51.090;-115.352;2024-02-21T09:30:53;1.30;;;0.10;;
76393;SDS011;65216;51.090;-115.352;2024-02-21T09:33:19;0.00;;;0.00;;
76393;SDS011;65216;51.090;-115.352;2024-02-21T09:35:46;0.20;;;0.10;;
76393;SDS011;65216;51.090;-115.352;2024-02-21T09:38:14;0.00;;;0.00;;
76393;SDS011;65216;51.090;-115.352;2024-02-21T09:40:41;0.10;;;0.10;;
76393;SDS011;65216;51.090;-115.352;2024-02-21T09:43:08;0.10;;;0.00;;
76393;SDS011;65216;51.090;-115.352;2024-02-21T09:45:35;0.10;;;0.10;;
76393;SDS011;65216;51.090;-115.352;2024-02-21T09:48:29;0.00;;;0.00;;
76393;SDS011;65216;51.090;-115.352;2024-02-21T09:51:09;0.40;;;0.00;;
76393;SDS011;65216;51.090;-115.352;2024-02-21T09:53:42;0.20;;;0.20;;
76393;SDS011;65216;51.090;-115.352;2024-02-21T09:56:10;0.10;;;0.00;;
76393;SDS011;65216;51.090;-115.352;2024-02-21T09:58:39;0.10;;;0.10;;
76393;SDS011;65216;51.090;-115.352;2024-02-21T10:01:07;0.00;;;0.00;;
76393;SDS011;65216;51.090;-115.352;2024-02-21T10:03:34;0.20;;;0.10;;
76393;SDS011;65216;51.090;-115.352;2024-02-21T10:06:01;0.70;;;0.00;;
76393;SDS011;65216;51.090;-115.352;2024-02-21T10:08:28;0.30;;;0.20;;
76393;SDS011;65216;51.090;-115.352;2024-02-21T10:10:55;0.20;;;0.20;;
76393;SDS011;65216;51.090;-115.352;2024-02-21T10:13:29;0.20;;;0.10;;
76393;SDS011;65216;51.090;-115.352;2024-02-21T10:18:36;0.00;;;0.00;;
76393;SDS011;65216;51.090;-115.352;2024-02-21T10:21:06;0.80;;;0.00;;
76393;SDS011;65216;51.090;-115.352;2024-02-21T10:23:49;0.20;;;0.10;;
76393;SDS011;65216;51.090;-115.352;2024-02-21T10:26:20;0.40;;;0.20;;
76393;SDS011;65216;51.090;-115.352;2024-02-21T10:28:47;0.20;;;0.10;;
76393;SDS011;65216;51.090;-115.352;2024-02-21T10:31:26;0.00;;;0.00;;
76393;SDS011;65216;51.090;-115.352;2024-02-21T10:33:58;0.10;;;0.10;;
76393;SDS011;65216;51.090;-115.352;2024-02-21T10:36:26;0.50;;;0.20;;
76393;SDS011;65216;51.090;-115.352;2024-02-21T10:38:56;0.30;;;0.10;;
76393;SDS011;65216;51.090;-115.352;2024-02-21T10:41:24;0.20;;;0.10;;
76393;SDS011;65216;51.090;-115.352;2024-02-21T10:43:55;0.60;;;0.20;;
76393;SDS011;65216;51.090;-115.352;2024-02-21T10:46:23;0.00;;;0.00;;
76393;SDS011;65216;51.090;-115.352;2024-02-21T10:49:08;0.10;;;0.10;;
76393;SDS011;65216;51.090;-115.352;2024-02-21T10:51:43;0.30;;;0.20;;
76393;SDS011;65216;51.090;-115.352;2024-02-21T10:57:02;0.10;;;0.10;;
76393;SDS011;65216;51.090;-115.352;2024-02-21T10:59:32;0.10;;;0.10;;
76393;SDS011;65216;51.090;-115.352;2024-02-21T11:02:00;0.70;;;0.20;;
76393;SDS011;65216;51.090;-115.352;2024-02-21T11:04:29;0.00;;;0.00;;
76393;SDS011;65216;51.090;-115.352;2024-02-21T11:06:58;0.50;;;0.00;;
76393;SDS011;65216;51.090;-115.352;2024-02-21T11:09:31;0.10;;;0.10;;
76393;SDS011;65216;51.090;-115.352;2024-02-21T11:12:02;0.10;;;0.10;;
76393;SDS011;65216;51.090;-115.352;2024-02-21T11:14:30;0.70;;;0.00;;
76393;SDS011;65216;51.090;-115.352;2024-02-21T11:17:15;0.00;;;0.00;;
76393;SDS011;65216;51.090;-115.352;2024-02-21T11:19:43;1.10;;;0.30;;
76393;SDS011;65216;51.090;-115.352;2024-02-21T11:22:19;0.40;;;0.10;;
76393;SDS011;65216;51.090;-115.352;2024-02-21T11:24:48;0.80;;;0.10;;
76393;SDS011;65216;51.090;-115.352;2024-02-21T11:27:22;0.30;;;0.10;;
76393;SDS011;65216;51.090;-115.352;2024-02-21T11:29:58;3.00;;;0.20;;
76393;SDS011;65216;51.090;-115.352;2024-02-21T11:32:26;0.60;;;0.10;;
76393;SDS011;65216;51.090;-115.352;2024-02-21T11:35:03;1.70;;;0.20;;
76393;SDS011;65216;51.090;-115.352;2024-02-21T11:37:31;0.10;;;0.00;;
76393;SDS011;65216;51.090;-115.352;2024-02-21T11:40:00;0.00;;;0.00;;
76393;SDS011;65216;51.090;-115.352;2024-02-21T11:42:30;0.10;;;0.10;;
76393;SDS011;65216;51.090;-115.352;2024-02-21T11:44:57;0.10;;;0.10;;
76393;SDS011;65216;51.090;-115.352;2024-02-21T11:47:28;0.10;;;0.10;;
76393;SDS011;65216;51.090;-115.352;2024-02-21T11:49:58;0.20;;;0.20;;
76393;SDS011;65216;51.090;-115.352;2024-02-21T11:52:26;0.60;;;0.10;;
76393;SDS011;65216;51.090;-115.352;2024-02-21T11:54:54;3.20;;;0.20;;
76393;SDS011;65216;51.090;-115.352;2024-02-21T11:57:23;1.80;;;0.20;;
76393;SDS011;65216;51.090;-115.352;2024-02-21T11:59:51;2.20;;;0.30;;
76393;SDS011;65216;51.090;-115.352;2024-02-21T12:02:20;0.40;;;0.00;;
76393;SDS011;65216;51.090;-115.352;2024-02-21T12:04:47;0.80;;;0.00;;
76393;SDS011;65216;51.090;-115.352;2024-02-21T12:07:15;0.10;;;0.10;;
76393;SDS011;65216;51.090;-115.352;2024-02-21T12:09:42;0.90;;;0.10;;
76393;SDS011;65216;51.090;-115.352;2024-02-21T12:12:08;0.10;;;0.00;;
76393;SDS011;65216;51.090;-115.352;2024-02-21T12:14:35;0.30;;;0.10;;
76393;SDS011;65216;51.090;-115.352;2024-02-21T12:17:04;0.20;;;0.10;;
76393;SDS011;65216;51.090;-115.352;2024-02-21T12:19:33;0.80;;;0.20;;
76393;SDS011;65216;51.090;-115.352;2024-02-21T12:22:02;0.10;;;0.00;;
76393;SDS011;65216;51.090;-115.352;2024-02-21T12:24:31;0.10;;;0.00;;
76393;SDS011;65216;51.090;-115.352;2024-02-21T12:26:59;0.00;;;0.00;;
76393;SDS011;65216;51.090;-115.352;2024-02-21T12:29:25;0.60;;;0.10;;
76393;SDS011;65216;51.090;-115.352;2024-02-21T12:31:53;0.20;;;0.10;;
76393;SDS011;65216;51.090;-115.352;2024-02-21T12:34:20;0.00;;;0.00;;
76393;SDS011;65216;51.090;-115.352;2024-02-21T12:36:49;0.10;;;0.00;;
76393;SDS011;65216;51.090;-115.352;2024-02-21T12:39:17;0.50;;;0.10;;
76393;SDS011;65216;51.090;-115.352;2024-02-21T12:41:44;0.00;;;0.00;;
76393;SDS011;65216;51.090;-115.352;2024-02-21T12:44:11;0.00;;;0.00;;
76393;SDS011;65216;51.090;-115.352;2024-02-21T12:46:38;0.00;;;0.00;;
76393;SDS011;65216;51.090;-115.352;2024-02-21T12:49:08;0.40;;;0.10;;
76393;SDS011;65216;51.090;-115.352;2024-02-21T12:51:37;0.30;;;0.20;;
76393;SDS011;65216;51.090;-115.352;2024-02-21T12:54:05;1.10;;;0.10;;
76393;SDS011;65216;51.090;-115.352;2024-02-21T12:56:32;0.00;;;0.00;;
76393;SDS011;65216;51.090;-115.352;2024-02-21T12:59:01;0.10;;;0.10;;
76393;SDS011;65216;51.090;-115.352;2024-02-21T13:01:27;0.60;;;0.00;;
76393;SDS011;65216;51.090;-115.352;2024-02-21T13:03:54;0.20;;;0.10;;
76393;SDS011;65216;51.090;-115.352;2024-02-21T13:06:23;0.10;;;0.00;;
76393;SDS011;65216;51.090;-115.352;2024-02-21T13:08:50;0.10;;;0.10;;
76393;SDS011;65216;51.090;-115.352;2024-02-21T13:11:17;0.10;;;0.10;;
76393;SDS011;65216;51.090;-115.352;2024-02-21T13:13:45;0.00;;;0.00;;
76393;SDS011;65216;51.090;-115.352;2024-02-21T13:16:14;0.10;;;0.10;;
76393;SDS011;65216;51.090;-115.352;2024-02-21T13:18:42;0.60;;;0.00;;
76393;SDS011;65216;51.090;-115.352;2024-02-21T13:21:09;0.00;;;0.00;;
76393;SDS011;65216;51.090;-115.352;2024-02-21T13:23:36;0.60;;;0.00;;
76393;SDS011;65216;51.090;-115.352;2024-02-21T13:26:03;0.10;;;0.00;;
76393;SDS011;65216;51.090;-115.352;2024-02-21T13:28:30;0.50;;;0.00;;
76393;SDS011;65216;51.090;-115.352;2024-02-21T13:30:57;0.30;;;0.00;;
76393;SDS011;65216;51.090;-115.352;2024-02-21T13:33:24;0.10;;;0.00;;
76393;SDS011;65216;51.090;-115.352;2024-02-21T13:35:51;0.10;;;0.10;;
76393;SDS011;65216;51.090;-115.352;2024-02-21T13:38:18;0.00;;;0.00;;
76393;SDS011;65216;51.090;-115.352;2024-02-21T13:40:45;0.00;;;0.00;;
76393;SDS011;65216;51.090;-115.352;2024-02-21T13:43:14;0.00;;;0.00;;
76393;SDS011;65216;51.090;-115.352;2024-02-21T13:45:56;0.10;;;0.00;;
76393;SDS011;65216;51.090;-115.352;2024-02-21T13:48:28;1.50;;;0.00;;
76393;SDS011;65216;51.090;-115.352;2024-02-21T13:50:56;0.10;;;0.00;;
76393;SDS011;65216;51.090;-115.352;2024-02-21T13:53:22;0.90;;;0.00;;
76393;SDS011;65216;51.090;-115.352;2024-02-21T13:55:49;0.40;;;0.10;;
76393;SDS011;65216;51.090;-115.352;2024-02-21T13:58:16;0.00;;;0.00;;
76393;SDS011;65216;51.090;-115.352;2024-02-21T14:00:44;0.40;;;0.10;;
76393;SDS011;65216;51.090;-115.352;2024-02-21T14:03:14;0.00;;;0.00;;
76393;SDS011;65216;51.090;-115.352;2024-02-21T14:05:40;0.10;;;0.10;;
76393;SDS011;65216;51.090;-115.352;2024-02-21T14:08:09;0.20;;;0.20;;
76393;SDS011;65216;51.090;-115.352;2024-02-21T14:10:38;0.00;;;0.00;;
76393;SDS011;65216;51.090;-115.352;2024-02-21T14:13:05;0.00;;;0.00;;
76393;SDS011;65216;51.090;-115.352;2024-02-21T14:15:31;0.10;;;0.10;;
76393;SDS011;65216;51.090;-115.352;2024-02-21T14:17:58;0.10;;;0.00;;